Willow River, MN (55795)

8:38 AM CDT on July 14, 2014 (GMT -0500)
RiverLand (KMNFINLA2) Elev 1115 ft | 46.29 °N, 92.96 °W | Change Station

Current weather conditions updated 9 minutes ago

Mostly Cloudy
Mostly Cloudy
52.9 °F
Feels Like 52.9 °F
N
0.9
Wind Variable Wind from West
Gusts 8.1 mph

Today is forecast to be Much Cooler than yesterday. Chance of showers.

Today
High -- | Low -- °F
--% Chance of Precip.
Yesterday
High -- | Low -- °F
Precip. -- in
5:33 AM 9:00 PM
Waning Gibbous, 93% visible
Pressure 29.86 in
Visibility 10.0 miles
Clouds Scattered Clouds 2000 ft
Scattered Clouds 2900 ft
Mostly Cloudy 9000 ft
Dew Point 49 °F
Humidity 85%
Rainfall 0.05 in
Snow Depth Not available.
UV 1 out of 12
Pollen 1.40 out of 12
Air Quality Not available.
Flu Activity Sporadic
METAR KMZH 141315Z AUTO 30007G14KT 242V312 10SM SCT020 SCT029 BKN090 12/08 A2986 RMK AO2

More Conditions Fewer Conditions

Pressure 29.86 in
Visibility 10.0 miles
Clouds Scattered Clouds 2000 ft
Scattered Clouds 2900 ft
Mostly Cloudy 9000 ft
Dew Point 49 °F
Humidity 85%
Rainfall 0.05 in
Snow Depth Not available.
UV 1 out of 12
Pollen 1.40 out of 12
Air Quality Not available.
Flu Activity Sporadic
METAR KMZH 141315Z AUTO 30007G14KT 242V312 10SM SCT020 SCT029 BKN090 12/08 A2986 RMK AO2

More Conditions Fewer Conditions

10-Day Weather Forecast

Almanac

Astronomy

Jul. 14, 2014 Rise Set
Actual Time 5:33 AM CDT 9:00 PM CDT
Civil Twilight 4:55 AM CDT 9:37 PM CDT
Nautical Twilight 4:06 AM CDT 10:27 PM CDT
Astronomical Twilight 3:02 AM CDT 11:30 PM CDT
Moon 10:16 PM CDT 8:28 AM CDT
Length of Visible Light 16h 42m
Length of Day
15h 27m
Tomorrow will be 1m 43s shorter.
Waning Gibbous, 93% of the Moon is Illuminated
Today
Waning Gibbous
Jul 18
Last Quarter
Jul 26
New
Aug 3
First Quarter
Aug 10
Full

Today's Extremes

State Highs State Lows

Community

WunderPhotos

Upload Photos

1,733,651 photos uploaded!

Nearby

Snow Depth

Station Depth Elevation
No new snow has been reported.

Earthquake Activity

City Distance Mag. Time & Date
No recent earthquake activity has been reported nearby.
Minimum magnitude displayed is 2.5.

Coastal Water Temperatures

Place Temperature
No Stations Reporting

Nearby Weather Stations

Station Location Temp. Dew Point Humidity Wind Precip. Elev Updated Type
RiverLand, Finlayson, MN 52.9 °F 49 °F 85% West  at  0.9 mph 0.00 in / hr 1115 ft 8:28 AM CDT Rapid Fire
RAWS MOOSE LAKE MN, Moose Lake, MN 52 °F 49 °F 88% WNW  at  7 mph 0.00 in / hr 1069 ft 7:08 AM CDT MADIS
Coffee Lake, Moose Lake Twp., MN 53.2 °F 51 °F 91% NW  at  6.0 mph 0.00 in / hr 1060 ft 8:37 AM CDT Rapid Fire
Located on Coffee Lake., Moose Lake, MN 54.1 °F 49 °F 83% WNW  at  11.9 mph 0.00 in / hr 1062 ft 8:38 AM CDT Rapid Fire

Show More Stations Show Fewer Stations